createdAt,value
2022-12-16T00:00:09.719Z,-0.20
2022-12-16T00:03:00.213Z,-0.20
2022-12-16T00:05:49.519Z,-0.10
2022-12-16T00:08:38.104Z,-0.20
2022-12-16T00:11:24.764Z,-0.10
2022-12-16T00:14:11.050Z,0.00
2022-12-16T00:16:57.418Z,0.20
2022-12-16T00:19:45.279Z,0.30
2022-12-16T00:22:31.920Z,0.40
2022-12-16T00:25:18.374Z,0.50
2022-12-16T00:28:05.147Z,0.50
2022-12-16T00:30:53.178Z,0.40
2022-12-16T00:33:41.963Z,0.20
2022-12-16T00:36:29.696Z,0.10
2022-12-16T00:39:16.256Z,0.00
2022-12-16T00:42:02.923Z,0.00
2022-12-16T00:44:49.235Z,0.20
2022-12-16T00:47:38.571Z,0.20
2022-12-16T00:50:29.220Z,0.20
2022-12-16T00:53:17.125Z,0.30
2022-12-16T00:56:05.104Z,0.40
2022-12-16T00:58:51.740Z,0.40
2022-12-16T01:01:38.152Z,0.30
2022-12-16T01:04:26.670Z,0.40
2022-12-16T01:07:13.109Z,0.40
2022-12-16T01:10:02.812Z,0.40
2022-12-16T01:12:49.631Z,0.50
2022-12-16T01:15:38.620Z,0.40
2022-12-16T01:18:25.201Z,0.40
2022-12-16T01:21:14.208Z,0.40
2022-12-16T01:24:00.759Z,0.40
2022-12-16T01:26:48.770Z,0.40
2022-12-16T01:29:35.483Z,0.50
2022-12-16T01:32:22.321Z,0.50
2022-12-16T01:35:29.548Z,0.50
2022-12-16T01:38:16.654Z,0.40
2022-12-16T01:41:04.288Z,0.30
2022-12-16T01:43:52.183Z,0.30
2022-12-16T01:46:39.557Z,0.30
2022-12-16T01:49:28.914Z,0.30
2022-12-16T01:52:21.012Z,0.20
2022-12-16T01:55:14.123Z,0.20
2022-12-16T01:58:04.762Z,0.30
2022-12-16T02:00:52.976Z,0.30
2022-12-16T02:03:43.754Z,0.20
2022-12-16T02:06:31.794Z,0.10
2022-12-16T02:09:19.181Z,0.10
2022-12-16T02:12:21.065Z,0.10
2022-12-16T02:15:20.123Z,0.10
2022-12-16T02:18:17.502Z,0.00
2022-12-16T02:21:35.443Z,0.10
2022-12-16T02:24:51.710Z,-0.10
2022-12-16T02:27:54.979Z,-0.10
2022-12-16T02:30:57.648Z,0.10
2022-12-16T02:34:03.146Z,0.20
2022-12-16T02:37:05.179Z,0.20
2022-12-16T02:39:57.919Z,0.20
2022-12-16T02:42:51.161Z,0.20
2022-12-16T02:45:39.782Z,0.30
2022-12-16T02:48:27.860Z,0.30
2022-12-16T02:51:14.926Z,0.20
2022-12-16T02:54:01.627Z,0.20
2022-12-16T02:56:59.198Z,0.30
2022-12-16T02:59:55.679Z,0.30
2022-12-16T03:02:49.276Z,0.40
2022-12-16T03:05:40.911Z,0.30
2022-12-16T03:08:32.601Z,0.30
2022-12-16T03:11:19.712Z,0.30
2022-12-16T03:14:08.304Z,0.40
2022-12-16T03:16:55.765Z,0.40
2022-12-16T03:19:46.582Z,0.30
2022-12-16T03:22:38.715Z,0.30
2022-12-16T03:25:26.700Z,0.40
2022-12-16T03:28:26.127Z,0.40
2022-12-16T03:31:20.854Z,0.30
2022-12-16T03:34:14.792Z,0.40
2022-12-16T03:37:03.066Z,0.40
2022-12-16T03:39:54.391Z,0.40
2022-12-16T03:42:42.830Z,0.30
2022-12-16T03:45:33.342Z,0.20
2022-12-16T03:48:24.994Z,0.20
2022-12-16T03:51:11.436Z,0.30
2022-12-16T03:53:57.999Z,0.00
2022-12-16T03:56:45.762Z,0.00
2022-12-16T03:59:32.312Z,0.10
2022-12-16T04:02:18.806Z,0.00
2022-12-16T04:05:05.898Z,0.10
2022-12-16T04:07:54.366Z,0.20
2022-12-16T04:10:59.401Z,0.20
2022-12-16T04:14:04.721Z,0.20
2022-12-16T04:17:08.718Z,0.20
2022-12-16T04:20:12.720Z,0.20
2022-12-16T04:23:16.798Z,0.20
2022-12-16T04:26:03.523Z,0.10
2022-12-16T04:28:51.185Z,0.10
2022-12-16T04:31:37.649Z,0.10
2022-12-16T04:34:27.754Z,0.10
2022-12-16T04:37:31.693Z,0.10
2022-12-16T04:40:35.813Z,0.00
2022-12-16T04:43:39.579Z,0.10
2022-12-16T04:46:45.093Z,0.00
2022-12-16T04:49:49.576Z,-0.10
2022-12-16T04:52:54.430Z,-0.10
2022-12-16T04:56:03.825Z,0.00
2022-12-16T04:59:07.922Z,0.00
2022-12-16T05:02:13.430Z,0.00
2022-12-16T05:05:16.467Z,-0.10
2022-12-16T05:08:20.358Z,-0.20
2022-12-16T05:11:20.708Z,-0.20
2022-12-16T05:14:24.826Z,-0.20
2022-12-16T05:17:30.609Z,-0.20
2022-12-16T05:20:34.955Z,-0.20
2022-12-16T05:23:38.952Z,-0.10
2022-12-16T05:26:42.950Z,-0.20
2022-12-16T05:29:47.045Z,-0.20
2022-12-16T05:32:52.641Z,-0.40
2022-12-16T05:35:56.627Z,-0.40
2022-12-16T05:39:00.570Z,-0.40
2022-12-16T05:42:04.426Z,-0.40
2022-12-16T05:45:08.626Z,-0.40
2022-12-16T05:48:22.732Z,-0.50
2022-12-16T05:51:26.769Z,-0.50
2022-12-16T05:54:30.883Z,-0.50
2022-12-16T05:57:46.519Z,-0.50
2022-12-16T06:00:50.833Z,-0.60
2022-12-16T06:03:56.617Z,-0.60
2022-12-16T06:07:01.103Z,-0.70
2022-12-16T06:10:05.235Z,-0.60
2022-12-16T06:13:09.086Z,-0.60
2022-12-16T06:16:12.400Z,-0.60
2022-12-16T06:19:17.714Z,-0.50
2022-12-16T06:22:21.547Z,-0.50
2022-12-16T06:25:26.347Z,-0.50
2022-12-16T06:28:30.300Z,-0.50
2022-12-16T06:31:34.524Z,-0.60
2022-12-16T06:34:40.226Z,-0.50
2022-12-16T06:37:44.258Z,-0.70
2022-12-16T06:40:48.159Z,-0.80
2022-12-16T06:43:52.291Z,-0.80
2022-12-16T06:46:56.222Z,-0.90
2022-12-16T06:50:01.681Z,-1.00
2022-12-16T06:53:05.707Z,-1.00
2022-12-16T06:56:10.307Z,-1.00
2022-12-16T06:59:14.208Z,-1.10
2022-12-16T07:02:18.404Z,-1.10
2022-12-16T07:05:24.523Z,-1.20
2022-12-16T07:08:28.403Z,-1.40
2022-12-16T07:11:32.342Z,-1.60
2022-12-16T07:14:36.432Z,-1.80
2022-12-16T07:17:40.472Z,-1.80
2022-12-16T07:20:45.786Z,-1.70
2022-12-16T07:23:49.742Z,-1.60
2022-12-16T07:26:54.599Z,-1.80
2022-12-16T07:30:13.175Z,-2.00
2022-12-16T07:33:17.311Z,-2.20
2022-12-16T07:36:23.510Z,-2.40
2022-12-16T07:39:27.581Z,-2.50
2022-12-16T07:42:31.637Z,-2.50
2022-12-16T07:45:40.291Z,-2.60
2022-12-16T07:48:47.469Z,-2.60
2022-12-16T07:51:53.283Z,-2.50
2022-12-16T07:54:57.192Z,-2.60
2022-12-16T07:58:07.102Z,-2.60
2022-12-16T08:01:11.130Z,-2.60
2022-12-16T08:04:14.132Z,-2.50
2022-12-16T08:07:20.032Z,-2.50
2022-12-16T08:10:24.657Z,-2.30
2022-12-16T08:13:28.571Z,-2.20
2022-12-16T08:16:32.622Z,-2.10
2022-12-16T08:19:36.544Z,-2.10
2022-12-16T08:22:42.005Z,-1.90
2022-12-16T08:25:46.033Z,-1.80
2022-12-16T08:28:50.013Z,-1.60
2022-12-16T08:31:54.125Z,-1.50
2022-12-16T08:34:59.295Z,-1.60
2022-12-16T08:38:10.500Z,-1.60
2022-12-16T08:41:17.690Z,-1.50
2022-12-16T08:44:21.583Z,-1.60
2022-12-16T08:47:27.923Z,-1.50
2022-12-16T08:50:32.206Z,-1.40
2022-12-16T08:53:37.669Z,-1.30
2022-12-16T08:56:41.482Z,-1.20
2022-12-16T08:59:45.687Z,-1.20
2022-12-16T09:02:50.377Z,-1.20
2022-12-16T09:05:55.408Z,-1.00
2022-12-16T09:09:00.631Z,-1.00
2022-12-16T09:12:04.722Z,-0.90
2022-12-16T09:15:17.195Z,-0.80
2022-12-16T09:18:21.939Z,-0.70
2022-12-16T09:21:31.671Z,-0.60
2022-12-16T09:24:38.558Z,-0.60
2022-12-16T09:27:42.467Z,-0.50
2022-12-16T09:30:46.506Z,-0.50
2022-12-16T09:33:50.463Z,-0.60
2022-12-16T09:36:54.318Z,-0.60
2022-12-16T09:40:01.454Z,-0.60
2022-12-16T09:43:10.432Z,-0.50
2022-12-16T09:46:21.721Z,-0.60
2022-12-16T09:49:36.069Z,-0.30
2022-12-16T09:52:41.371Z,-0.40
2022-12-16T09:55:50.898Z,-0.30
2022-12-16T09:59:11.935Z,-0.40
2022-12-16T10:02:16.498Z,-0.40
2022-12-16T10:05:21.765Z,-0.20
2022-12-16T10:08:35.872Z,-0.10
2022-12-16T10:11:46.510Z,0.20
2022-12-16T10:14:57.950Z,0.20
2022-12-16T10:18:04.420Z,0.20
2022-12-16T10:21:12.312Z,0.10
2022-12-16T10:24:23.496Z,0.30
2022-12-16T10:27:32.631Z,0.30
2022-12-16T10:30:36.771Z,0.40
2022-12-16T10:33:46.506Z,0.50
2022-12-16T10:36:53.476Z,0.40
2022-12-16T10:40:02.350Z,0.30
2022-12-16T10:43:15.642Z,0.50
2022-12-16T10:46:29.716Z,0.60
2022-12-16T10:49:34.495Z,0.70
2022-12-16T10:52:38.526Z,0.80
2022-12-16T10:55:52.709Z,0.70
2022-12-16T10:59:02.173Z,0.70
2022-12-16T11:02:16.358Z,0.60
2022-12-16T11:05:20.670Z,0.50
2022-12-16T11:08:42.250Z,0.40
2022-12-16T11:11:47.819Z,0.30
2022-12-16T11:15:20.419Z,0.30
2022-12-16T11:18:21.639Z,0.40
2022-12-16T11:21:31.338Z,0.30
2022-12-16T11:24:37.778Z,0.40
2022-12-16T11:27:43.772Z,0.40
2022-12-16T11:30:49.395Z,0.50
2022-12-16T11:33:53.352Z,0.70
2022-12-16T11:36:59.391Z,0.80
2022-12-16T11:40:12.483Z,0.80
2022-12-16T11:43:19.133Z,0.90
2022-12-16T11:46:32.603Z,0.90
2022-12-16T11:49:44.878Z,1.00
2022-12-16T11:52:50.313Z,1.00
2022-12-16T11:56:05.900Z,1.00
2022-12-16T11:59:20.312Z,1.10
2022-12-16T12:02:33.671Z,1.00
2022-12-16T12:05:43.232Z,1.20
2022-12-16T12:08:52.108Z,1.20
2022-12-16T12:12:02.958Z,1.20
2022-12-16T12:15:16.097Z,1.40
2022-12-16T12:18:45.722Z,1.50
2022-12-16T12:21:54.051Z,1.30
2022-12-16T12:25:08.794Z,1.40
2022-12-16T12:28:36.310Z,1.50
2022-12-16T12:31:50.674Z,1.50
2022-12-16T12:35:04.298Z,1.30
2022-12-16T12:38:16.762Z,1.30
2022-12-16T12:41:29.187Z,1.40
2022-12-16T12:44:48.933Z,1.50
2022-12-16T12:47:56.669Z,1.60
2022-12-16T12:51:09.053Z,1.60
2022-12-16T12:54:19.830Z,1.50
2022-12-16T12:57:28.025Z,1.30
2022-12-16T13:00:36.763Z,1.40
2022-12-16T13:03:50.212Z,1.30
2022-12-16T13:06:56.206Z,1.40
2022-12-16T13:10:00.308Z,1.50
2022-12-16T13:13:47.150Z,1.60
2022-12-16T13:17:25.879Z,1.70
2022-12-16T13:20:56.553Z,1.60
2022-12-16T13:24:03.606Z,1.60
2022-12-16T13:27:20.201Z,1.50
2022-12-16T13:30:38.941Z,1.60
2022-12-16T13:33:48.235Z,1.50
2022-12-16T13:36:53.313Z,1.50
2022-12-16T13:40:01.543Z,1.60
2022-12-16T13:43:12.130Z,1.60
2022-12-16T13:46:35.144Z,1.40
2022-12-16T13:50:05.704Z,1.40
2022-12-16T13:53:16.609Z,1.30
2022-12-16T13:56:24.796Z,1.30
2022-12-16T13:59:32.134Z,1.20
2022-12-16T14:02:44.761Z,1.30
2022-12-16T14:05:54.682Z,1.40
2022-12-16T14:08:59.328Z,1.30
2022-12-16T14:12:12.059Z,1.40
2022-12-16T14:15:23.906Z,1.40
2022-12-16T14:18:43.885Z,1.50
2022-12-16T14:21:56.691Z,1.50
2022-12-16T14:25:01.552Z,1.60
2022-12-16T14:28:07.180Z,1.50
2022-12-16T14:31:22.022Z,1.40
2022-12-16T14:34:39.677Z,1.30
2022-12-16T14:37:53.023Z,1.40
2022-12-16T14:40:57.990Z,1.30
2022-12-16T14:44:02.762Z,1.20
2022-12-16T14:47:10.523Z,1.30
2022-12-16T14:50:14.527Z,1.30
2022-12-16T14:53:32.131Z,1.30
2022-12-16T14:56:37.979Z,1.30
2022-12-16T14:59:43.376Z,1.20
2022-12-16T15:02:52.955Z,1.30
2022-12-16T15:05:58.088Z,1.20
2022-12-16T15:09:08.251Z,1.10
2022-12-16T15:12:14.290Z,1.20
2022-12-16T15:15:24.479Z,1.10
2022-12-16T15:18:35.707Z,1.00
2022-12-16T15:21:40.153Z,1.00
2022-12-16T15:24:45.619Z,1.00
2022-12-16T15:27:54.014Z,1.10
2022-12-16T15:31:01.525Z,1.10
2022-12-16T15:34:05.133Z,1.10
2022-12-16T15:37:09.187Z,1.10
2022-12-16T15:40:13.165Z,1.10
2022-12-16T15:43:17.271Z,1.00
2022-12-16T15:46:23.031Z,0.90
2022-12-16T15:49:37.683Z,0.80
2022-12-16T15:52:51.721Z,0.90
2022-12-16T15:56:04.236Z,0.90
2022-12-16T15:59:08.928Z,0.70
2022-12-16T16:02:14.947Z,0.70
2022-12-16T16:05:19.309Z,0.70
2022-12-16T16:08:23.656Z,0.80
2022-12-16T16:11:28.017Z,0.70
2022-12-16T16:14:31.984Z,0.60
2022-12-16T16:17:41.340Z,0.70
2022-12-16T16:20:45.206Z,0.70
2022-12-16T16:23:49.642Z,0.80
2022-12-16T16:27:08.593Z,0.70
2022-12-16T16:30:24.207Z,0.80
2022-12-16T16:33:29.747Z,0.90
2022-12-16T16:36:34.218Z,0.90
2022-12-16T16:39:37.904Z,0.70
2022-12-16T16:42:42.036Z,0.70
2022-12-16T16:45:46.142Z,0.80
2022-12-16T16:48:52.497Z,0.80
2022-12-16T16:51:56.489Z,0.80
2022-12-16T16:55:00.683Z,0.80
2022-12-16T16:58:05.280Z,0.80
2022-12-16T17:01:09.784Z,0.70
2022-12-16T17:04:15.760Z,0.70
2022-12-16T17:07:19.639Z,0.60
2022-12-16T17:10:23.556Z,0.50
2022-12-16T17:13:27.970Z,0.60
2022-12-16T17:16:33.061Z,0.70
2022-12-16T17:19:38.756Z,0.60
2022-12-16T17:22:42.769Z,0.70
2022-12-16T17:25:46.841Z,0.60
2022-12-16T17:28:51.009Z,0.50
2022-12-16T17:31:55.120Z,0.50
2022-12-16T17:35:00.800Z,0.60
2022-12-16T17:38:04.681Z,0.70
2022-12-16T17:41:10.740Z,0.70
2022-12-16T17:44:14.739Z,0.60
2022-12-16T17:47:18.961Z,0.50
2022-12-16T17:50:25.648Z,0.60
2022-12-16T17:53:29.706Z,0.70
2022-12-16T17:56:33.702Z,0.60
2022-12-16T17:59:37.812Z,0.50
2022-12-16T18:02:44.012Z,0.40
2022-12-16T18:05:46.176Z,0.50
2022-12-16T18:08:49.969Z,0.50
2022-12-16T18:11:53.968Z,0.60
2022-12-16T18:15:06.399Z,0.50
2022-12-16T18:18:10.808Z,0.60
2022-12-16T18:21:26.412Z,0.50
2022-12-16T18:24:31.011Z,0.40
2022-12-16T18:27:35.587Z,0.40
2022-12-16T18:30:40.201Z,0.30
2022-12-16T18:33:49.741Z,0.20
2022-12-16T18:36:55.319Z,0.30
2022-12-16T18:39:59.245Z,0.40
2022-12-16T18:43:03.170Z,0.50
2022-12-16T18:46:10.746Z,0.50
2022-12-16T18:49:14.696Z,0.40
2022-12-16T18:52:20.409Z,0.50
2022-12-16T18:55:25.669Z,0.30
2022-12-16T19:01:53.909Z,0.30
2022-12-16T19:04:57.820Z,0.30
2022-12-16T19:08:03.329Z,0.20
2022-12-16T19:11:07.145Z,0.30
2022-12-16T19:14:11.095Z,0.30
2022-12-16T19:17:15.132Z,0.20
2022-12-16T19:20:19.135Z,0.30
2022-12-16T19:23:30.118Z,0.20
2022-12-16T19:26:34.368Z,0.20
2022-12-16T19:29:38.195Z,0.20
2022-12-16T19:32:56.567Z,0.20
2022-12-16T19:36:06.079Z,0.10
2022-12-16T19:39:11.693Z,0.10
2022-12-16T19:42:15.694Z,0.00
2022-12-16T19:45:19.751Z,0.00
2022-12-16T19:48:25.700Z,-0.10
2022-12-16T19:51:29.640Z,0.00
2022-12-16T19:54:35.100Z,-0.10
2022-12-16T19:57:39.142Z,-0.20
2022-12-16T20:00:43.195Z,-0.40
2022-12-16T20:03:47.628Z,-0.60
2022-12-16T20:06:56.233Z,-0.60
2022-12-16T20:10:01.605Z,-0.60
2022-12-16T20:13:05.890Z,-0.70
2022-12-16T20:16:10.002Z,-0.80
2022-12-16T20:19:14.616Z,-0.70
2022-12-16T20:22:18.551Z,-0.60
2022-12-16T20:25:25.279Z,-0.70
2022-12-16T20:28:30.269Z,-0.80
2022-12-16T20:31:34.384Z,-0.80
2022-12-16T20:34:43.940Z,-0.70
2022-12-16T20:37:48.279Z,-0.90
2022-12-16T20:40:53.655Z,-0.90
2022-12-16T20:44:00.200Z,-0.90
2022-12-16T20:47:04.207Z,-1.30
2022-12-16T20:50:08.539Z,-1.40
2022-12-16T20:53:13.676Z,-1.70
2022-12-16T20:56:20.879Z,-1.80
2022-12-16T20:59:24.925Z,-1.80
2022-12-16T21:02:33.531Z,-1.70
2022-12-16T21:05:37.976Z,-1.70
2022-12-16T21:08:41.691Z,-1.80
2022-12-16T21:11:47.083Z,-2.10
2022-12-16T21:14:51.593Z,-2.30
2022-12-16T21:17:56.186Z,-2.40
2022-12-16T21:21:00.391Z,-2.40
2022-12-16T21:24:04.911Z,-2.20
2022-12-16T21:27:10.094Z,-2.10
2022-12-16T21:30:14.060Z,-2.00
2022-12-16T21:33:29.345Z,-1.90
2022-12-16T21:36:33.575Z,-2.10
2022-12-16T21:39:37.497Z,-2.80
2022-12-16T21:42:44.175Z,-3.20
2022-12-16T21:45:48.260Z,-3.20
2022-12-16T21:48:52.294Z,-3.20
2022-12-16T21:52:07.468Z,-3.20
2022-12-16T21:55:11.598Z,-3.00
2022-12-16T21:58:17.404Z,-2.90
2022-12-16T22:01:22.095Z,-2.90
2022-12-16T22:04:27.611Z,-3.00
2022-12-16T22:07:31.516Z,-3.10
2022-12-16T22:10:35.560Z,-3.10
2022-12-16T22:13:41.658Z,-3.00
2022-12-16T22:16:48.601Z,-2.90
2022-12-16T22:19:56.228Z,-2.70
2022-12-16T22:23:00.643Z,-2.50
2022-12-16T22:26:04.699Z,-2.30
2022-12-16T22:29:11.904Z,-2.40
2022-12-16T22:32:15.982Z,-2.50
2022-12-16T22:35:19.798Z,-2.50
2022-12-16T22:38:23.825Z,-2.30
2022-12-16T22:41:27.686Z,-2.30
2022-12-16T22:44:33.052Z,-2.30
2022-12-16T22:47:37.137Z,-2.40
2022-12-16T22:50:41.671Z,-2.30
2022-12-16T22:53:46.065Z,-2.10
2022-12-16T22:56:50.225Z,-2.10
2022-12-16T22:59:55.543Z,-2.30
2022-12-16T23:03:00.406Z,-2.30
2022-12-16T23:06:01.435Z,-2.30
2022-12-16T23:09:05.670Z,-2.30
2022-12-16T23:12:10.131Z,-2.30
2022-12-16T23:15:15.977Z,-2.30
2022-12-16T23:18:20.453Z,-2.20
2022-12-16T23:21:33.171Z,-2.10
2022-12-16T23:24:38.238Z,-2.20
2022-12-16T23:27:42.150Z,-2.30
2022-12-16T23:30:47.651Z,-2.20
2022-12-16T23:33:56.856Z,-2.30
2022-12-16T23:37:00.743Z,-2.30
2022-12-16T23:40:04.817Z,-2.40
2022-12-16T23:43:12.323Z,-2.50
2022-12-16T23:46:17.571Z,-2.60
2022-12-16T23:49:22.097Z,-2.60
2022-12-16T23:52:26.089Z,-2.70
2022-12-16T23:55:30.348Z,-2.70
2022-12-16T23:58:34.244Z,-2.70
